Time,TemperatureF,DewpointF,PressureIn,WindDirection,WindDirectionDegrees,WindSpeedMPH,WindSpeedGustMPH,Humidity,HourlyPrecipIn,Conditions,Clouds,dailyrainin,SoftwareType,DateUTC
2013-05-17 00:00:00,53.2,52.4,27.32,NNE,18,2.3,6.4,97,0.00,--,--,0.00,awk and wget,2013-05-17 04:00:00,
2013-05-17 00:05:00,52.9,52.2,27.32,NNE,14,2.2,6.4,97,0.00,--,--,0.00,awk and wget,2013-05-17 04:05:00,
2013-05-17 00:10:00,53.0,52.3,27.32,North,11,0.7,5.1,97,0.00,--,--,0.00,awk and wget,2013-05-17 04:10:00,
2013-05-17 00:15:00,52.9,52.3,27.32,North,11,0.0,4.7,97,0.00,--,--,0.00,awk and wget,2013-05-17 04:15:00,
2013-05-17 00:20:00,52.3,51.6,27.33,NE,40,0.9,6.8,97,0.00,--,--,0.00,awk and wget,2013-05-17 04:20:00,
2013-05-17 00:25:00,52.1,51.4,27.33,NNW,330,5.1,7.4,97,0.00,--,--,0.00,awk and wget,2013-05-17 04:25:00,
2013-05-17 00:30:00,51.5,50.8,27.33,NNW,331,1.5,7.5,97,0.00,--,--,0.00,awk and wget,2013-05-17 04:30:00,
2013-05-17 00:35:00,51.6,50.9,27.33,NNW,331,3.7,7.5,97,0.00,--,--,0.00,awk and wget,2013-05-17 04:35:00,
2013-05-17 00:40:00,51.6,51.0,27.33,NNW,330,6.8,8.6,97,0.00,--,--,0.00,awk and wget,2013-05-17 04:40:00,
2013-05-17 00:45:00,52.3,51.8,27.33,NNW,335,9.4,9.7,98,0.00,--,--,0.00,awk and wget,2013-05-17 04:45:00,
2013-05-17 00:50:00,51.7,51.2,27.33,NNW,335,5.6,9.7,98,0.00,--,--,0.00,awk and wget,2013-05-17 04:50:00,
2013-05-17 01:00:00,51.8,51.3,27.33,NNW,330,6.0,8.3,98,0.00,--,--,0.00,awk and wget,2013-05-17 05:00:00,
2013-05-17 01:05:00,51.7,51.3,27.33,NNW,331,2.6,8.3,98,0.00,--,--,0.00,awk and wget,2013-05-17 05:05:00,
2013-05-17 01:10:00,51.7,51.3,27.33,NNW,331,3.1,7.5,98,0.00,--,--,0.00,awk and wget,2013-05-17 05:10:00,
2013-05-17 01:15:00,51.8,51.4,27.32,NNW,335,0.6,6.5,98,0.00,--,--,0.00,awk and wget,2013-05-17 05:15:00,
2013-05-17 01:20:00,51.8,51.4,27.33,SE,136,1.2,6.5,98,0.00,--,--,0.00,awk and wget,2013-05-17 05:20:00,
2013-05-17 01:25:00,51.7,51.3,27.33,SE,134,1.0,6.3,98,0.00,--,--,0.00,awk and wget,2013-05-17 05:25:00,
2013-05-17 01:30:00,51.2,50.8,27.33,NNW,333,0.5,6.1,98,0.00,--,--,0.00,awk and wget,2013-05-17 05:30:00,
2013-05-17 01:35:00,51.1,50.7,27.33,NNW,333,2.3,5.0,98,0.00,--,--,0.00,awk and wget,2013-05-17 05:35:00,
2013-05-17 01:40:00,51.2,50.8,27.33,NNW,334,0.2,4.5,98,0.00,--,--,0.00,awk and wget,2013-05-17 05:40:00,
2013-05-17 01:45:00,51.4,51.1,27.33,NNW,336,0.9,4.5,98,0.00,--,--,0.00,awk and wget,2013-05-17 05:45:00,
2013-05-17 01:50:00,51.5,51.2,27.33,NNW,336,0.7,3.0,98,0.00,--,--,0.00,awk and wget,2013-05-17 05:50:00,
2013-05-17 01:55:00,51.3,51.0,27.33,NNW,335,1.4,2.9,98,0.00,--,--,0.00,awk and wget,2013-05-17 05:55:00,
2013-05-17 02:00:00,51.4,51.1,27.33,NNW,336,0.0,3.0,98,0.00,--,--,0.00,awk and wget,2013-05-17 06:00:00,
2013-05-17 02:05:00,51.5,51.2,27.33,NNW,331,0.4,4.4,99,0.00,--,--,0.00,awk and wget,2013-05-17 06:05:00,
2013-05-17 02:10:00,51.9,51.6,27.33,NNW,331,1.5,5.0,99,0.00,--,--,0.00,awk and wget,2013-05-17 06:10:00,
2013-05-17 02:15:00,51.7,51.4,27.33,NNW,331,5.2,6.0,99,0.00,--,--,0.00,awk and wget,2013-05-17 06:15:00,
2013-05-17 02:20:00,51.5,51.3,27.33,NNW,330,4.3,6.7,99,0.00,--,--,0.00,awk and wget,2013-05-17 06:20:00,
2013-05-17 02:30:00,51.6,51.3,27.34,NNW,331,2.5,6.7,99,0.00,--,--,0.00,awk and wget,2013-05-17 06:30:00,
2013-05-17 02:35:00,51.7,51.5,27.34,NNW,331,1.3,6.5,99,0.00,--,--,0.00,awk and wget,2013-05-17 06:35:00,
2013-05-17 02:40:00,51.7,51.5,27.34,NNW,331,0.8,5.7,99,0.00,--,--,0.00,awk and wget,2013-05-17 06:40:00,
2013-05-17 02:45:00,51.8,51.6,27.34,NNW,332,0.9,5.7,99,0.00,--,--,0.00,awk and wget,2013-05-17 06:45:00,
2013-05-17 02:50:00,51.7,51.5,27.34,NNW,330,0.7,4.7,99,0.00,--,--,0.00,awk and wget,2013-05-17 06:50:00,
2013-05-17 02:55:00,51.7,51.5,27.34,NNW,335,0.7,4.7,99,0.00,--,--,0.00,awk and wget,2013-05-17 06:55:00,
2013-05-17 03:00:00,51.6,51.4,27.34,NNW,331,0.9,4.7,99,0.00,--,--,0.00,awk and wget,2013-05-17 07:00:00,
2013-05-17 03:05:00,51.6,51.4,27.34,NNW,341,0.7,4.7,99,0.00,--,--,0.00,awk and wget,2013-05-17 07:05:00,
2013-05-17 03:10:00,51.6,51.4,27.34,NNW,341,0.9,4.7,99,0.00,--,--,0.00,awk and wget,2013-05-17 07:10:00,
2013-05-17 03:15:00,51.5,51.3,27.34,NNW,341,0.0,4.5,99,0.00,--,--,0.00,awk and wget,2013-05-17 07:15:00,
2013-05-17 03:20:00,51.3,51.2,27.34,NNW,344,1.0,4.5,99,0.00,--,--,0.00,awk and wget,2013-05-17 07:20:00,
2013-05-17 03:25:00,51.3,51.2,27.34,NNW,346,1.2,4.9,99,0.00,--,--,0.00,awk and wget,2013-05-17 07:25:00,
2013-05-17 03:30:00,51.3,51.2,27.34,NNW,335,1.2,5.2,99,0.00,--,--,0.00,awk and wget,2013-05-17 07:30:00,
2013-05-17 03:40:00,51.1,50.9,27.34,NNE,33,2.2,5.2,99,0.00,--,--,0.00,awk and wget,2013-05-17 07:40:00,
2013-05-17 03:45:00,51.2,51.1,27.35,NE,39,1.3,3.7,99,0.00,--,--,0.00,awk and wget,2013-05-17 07:45:00,
2013-05-17 03:50:00,51.2,51.0,27.35,NNE,32,1.2,5.3,99,0.00,--,--,0.00,awk and wget,2013-05-17 07:50:00,
2013-05-17 03:55:00,51.0,50.9,27.35,NE,44,2.9,5.8,99,0.00,--,--,0.00,awk and wget,2013-05-17 07:55:00,
2013-05-17 04:00:00,50.9,50.8,27.35,ENE,67,2.2,6.6,99,0.00,--,--,0.00,awk and wget,2013-05-17 08:00:00,
2013-05-17 04:05:00,50.9,50.8,27.35,ENE,60,1.2,6.6,99,0.00,--,--,0.00,awk and wget,2013-05-17 08:05:00,
2013-05-17 04:10:00,50.9,50.8,27.35,ENE,58,0.7,6.6,99,0.00,--,--,0.00,awk and wget,2013-05-17 08:10:00,
2013-05-17 04:15:00,50.8,50.7,27.35,ENE,58,1.2,5.5,99,0.00,--,--,0.00,awk and wget,2013-05-17 08:15:00,
2013-05-17 04:20:00,50.6,50.5,27.35,ENE,59,0.7,4.4,99,0.00,--,--,0.00,awk and wget,2013-05-17 08:20:00,
2013-05-17 04:25:00,50.6,50.5,27.36,ENE,58,1.2,4.7,99,0.00,--,--,0.00,awk and wget,2013-05-17 08:25:00,
2013-05-17 04:30:00,50.6,50.5,27.36,NNE,23,1.4,4.7,99,0.00,--,--,0.00,awk and wget,2013-05-17 08:30:00,
2013-05-17 04:35:00,50.6,50.5,27.36,NE,51,2.0,4.7,99,0.00,--,--,0.00,awk and wget,2013-05-17 08:35:00,
2013-05-17 04:40:00,50.5,50.5,27.36,NE,45,1.5,4.7,99,0.00,--,--,0.00,awk and wget,2013-05-17 08:40:00,
2013-05-17 04:45:00,50.5,50.4,27.36,ENE,70,1.8,4.6,99,0.00,--,--,0.00,awk and wget,2013-05-17 08:45:00,
2013-05-17 04:50:00,50.3,50.2,27.36,ESE,116,1.9,4.3,99,0.00,--,--,0.00,awk and wget,2013-05-17 08:50:00,
2013-05-17 04:55:00,50.2,50.2,27.37,ESE,117,0.0,4.3,99,0.00,--,--,0.00,awk and wget,2013-05-17 08:55:00,
2013-05-17 05:00:00,50.1,50.1,27.37,ESE,117,1.2,4.3,99,0.00,--,--,0.00,awk and wget,2013-05-17 09:00:00,
2013-05-17 05:05:00,50.1,50.0,27.37,ESE,119,0.3,4.3,99,0.00,--,--,0.00,awk and wget,2013-05-17 09:05:00,
2013-05-17 05:10:00,50.1,50.0,27.37,ENE,70,1.5,4.7,99,0.00,--,--,0.00,awk and wget,2013-05-17 09:10:00,
2013-05-17 05:15:00,49.9,49.9,27.37,East,89,0.8,5.0,99,0.00,--,--,0.00,awk and wget,2013-05-17 09:15:00,
2013-05-17 05:20:00,49.8,49.7,27.37,ENE,68,1.2,5.0,99,0.00,--,--,0.00,awk and wget,2013-05-17 09:20:00,
2013-05-17 05:25:00,49.5,49.5,27.37,East,88,1.9,5.3,99,0.00,--,--,0.00,awk and wget,2013-05-17 09:25:00,
2013-05-17 05:30:00,49.3,49.2,27.37,ESE,106,2.6,5.3,99,0.00,--,--,0.00,awk and wget,2013-05-17 09:30:00,
2013-05-17 05:35:00,49.1,49.1,27.38,ESE,117,3.1,6.1,99,0.00,--,--,0.00,awk and wget,2013-05-17 09:35:00,
2013-05-17 05:40:00,48.8,48.8,27.38,ESE,108,1.2,6.1,99,0.00,--,--,0.00,awk and wget,2013-05-17 09:40:00,
2013-05-17 05:45:00,48.7,48.7,27.38,NE,46,2.1,6.1,99,0.00,--,--,0.00,awk and wget,2013-05-17 09:45:00,
2013-05-17 05:50:00,48.9,48.8,27.38,North,5,3.6,6.4,99,0.00,--,--,0.00,awk and wget,2013-05-17 09:50:00,
2013-05-17 06:00:00,49.1,49.0,27.38,NNE,20,1.8,6.6,99,0.00,--,--,0.00,awk and wget,2013-05-17 10:00:00,
2013-05-17 06:10:00,49.0,49.0,27.38,ENE,65,2.8,7.9,99,0.00,--,--,0.00,awk and wget,2013-05-17 10:10:00,
2013-05-17 06:15:00,49.1,49.0,27.39,NE,46,0.8,7.9,99,0.00,--,--,0.00,awk and wget,2013-05-17 10:15:00,
2013-05-17 06:20:00,49.1,49.0,27.39,NE,39,1.8,7.3,99,0.00,--,--,0.00,awk and wget,2013-05-17 10:20:00,
2013-05-17 06:25:00,49.1,49.0,27.39,NNE,30,1.2,5.7,99,0.00,--,--,0.00,awk and wget,2013-05-17 10:25:00,
2013-05-17 06:30:00,49.0,49.0,27.39,NNE,30,0.5,4.9,99,0.00,--,--,0.00,awk and wget,2013-05-17 10:30:00,
2013-05-17 06:35:00,49.0,48.9,27.39,NNE,30,0.9,4.9,99,0.00,--,--,0.00,awk and wget,2013-05-17 10:35:00,
2013-05-17 06:40:00,49.1,49.0,27.39,NE,37,1.5,4.6,99,0.00,--,--,0.00,awk and wget,2013-05-17 10:40:00,
2013-05-17 06:45:00,48.9,48.9,27.39,East,80,1.5,5.2,99,0.00,--,--,0.00,awk and wget,2013-05-17 10:45:00,
2013-05-17 06:50:00,48.7,48.7,27.40,ENE,77,0.9,5.2,99,0.00,--,--,0.00,awk and wget,2013-05-17 10:50:00,
2013-05-17 06:55:00,48.7,48.7,27.40,ENE,77,0.0,5.2,99,0.00,--,--,0.00,awk and wget,2013-05-17 10:55:00,
2013-05-17 07:00:00,48.7,48.7,27.40,ENE,76,0.2,5.0,99,0.00,--,--,0.00,awk and wget,2013-05-17 11:00:00,
2013-05-17 07:05:00,49.1,49.0,27.40,ENE,77,0.5,4.2,99,0.00,--,--,0.00,awk and wget,2013-05-17 11:05:00,
2013-05-17 07:10:00,48.9,48.9,27.40,ENE,59,1.7,3.7,99,0.00,--,--,0.00,awk and wget,2013-05-17 11:10:00,
2013-05-17 07:15:00,49.1,49.1,27.40,NE,50,1.7,4.3,99,0.00,--,--,0.00,awk and wget,2013-05-17 11:15:00,
2013-05-17 07:20:00,48.9,48.9,27.40,ENE,66,0.9,5.2,99,0.00,--,--,0.00,awk and wget,2013-05-17 11:20:00,
2013-05-17 07:25:00,49.1,49.1,27.40,ENE,63,1.7,5.2,99,0.00,--,--,0.00,awk and wget,2013-05-17 11:25:00,
2013-05-17 07:30:00,49.1,49.1,27.40,NE,52,2.5,5.6,99,0.00,--,--,0.00,awk and wget,2013-05-17 11:30:00,
2013-05-17 07:35:00,49.6,49.6,27.40,East,82,1.8,5.7,99,0.00,--,--,0.00,awk and wget,2013-05-17 11:35:00,
2013-05-17 07:40:00,51.1,51.1,27.40,ENE,78,0.3,5.7,99,0.00,--,--,0.00,awk and wget,2013-05-17 11:40:00,
2013-05-17 07:45:00,51.5,51.5,27.40,ENE,67,0.1,5.7,99,0.00,--,--,0.00,awk and wget,2013-05-17 11:45:00,
2013-05-17 07:50:00,51.8,51.8,27.41,ENE,70,0.0,5.4,99,0.00,--,--,0.00,awk and wget,2013-05-17 11:50:00,
2013-05-17 08:00:00,52.8,52.8,27.41,ESE,109,1.5,5.4,99,0.00,--,--,0.00,awk and wget,2013-05-17 12:00:00,
2013-05-17 08:10:00,53.6,53.6,27.41,NNW,330,2.9,6.1,99,0.00,--,--,0.00,awk and wget,2013-05-17 12:10:00,
2013-05-17 08:15:00,53.6,53.6,27.41,NNW,331,3.1,7.2,99,0.00,--,--,0.00,awk and wget,2013-05-17 12:15:00,
2013-05-17 08:20:00,53.2,53.2,27.42,NNW,330,3.4,7.2,99,0.00,--,--,0.00,awk and wget,2013-05-17 12:20:00,
2013-05-17 08:30:00,53.1,53.1,27.42,NNW,331,2.6,7.6,99,0.00,--,--,0.00,awk and wget,2013-05-17 12:30:00,
2013-05-17 08:35:00,53.6,53.6,27.42,NNW,332,1.0,7.6,99,0.00,--,--,0.00,awk and wget,2013-05-17 12:35:00,
2013-05-17 08:40:00,54.0,54.0,27.42,NNW,330,1.3,6.3,99,0.00,--,--,0.00,awk and wget,2013-05-17 12:40:00,
2013-05-17 08:45:00,54.6,54.6,27.42,NNW,332,1.2,4.9,99,0.00,--,--,0.00,awk and wget,2013-05-17 12:45:00,
2013-05-17 08:50:00,55.2,55.2,27.42,NNW,330,2.2,5.2,99,0.00,--,--,0.00,awk and wget,2013-05-17 12:50:00,
2013-05-17 09:00:00,56.4,56.4,27.42,NNW,333,0.0,5.4,99,0.00,--,--,0.00,awk and wget,2013-05-17 13:00:00,
2013-05-17 09:10:00,57.6,57.4,27.42,NNW,333,0.6,5.1,99,0.00,--,--,0.00,awk and wget,2013-05-17 13:10:00,
2013-05-17 09:15:00,58.5,58.3,27.42,NNW,333,0.0,5.1,99,0.00,--,--,0.00,awk and wget,2013-05-17 13:15:00,
2013-05-17 09:20:00,59.4,58.9,27.42,East,82,0.6,4.5,98,0.00,--,--,0.00,awk and wget,2013-05-17 13:20:00,
2013-05-17 09:30:00,61.5,58.4,27.42,ESE,110,0.8,4.8,89,0.00,--,--,0.00,awk and wget,2013-05-17 13:30:00,
2013-05-17 09:35:00,62.9,56.2,27.42,East,101,0.2,5.1,78,0.00,--,--,0.00,awk and wget,2013-05-17 13:35:00,
2013-05-17 09:40:00,62.1,55.6,27.42,ESE,108,0.7,5.1,79,0.00,--,--,0.00,awk and wget,2013-05-17 13:40:00,
2013-05-17 09:50:00,62.7,55.2,27.42,NNW,334,1.4,4.4,76,0.00,--,--,0.00,awk and wget,2013-05-17 13:50:00,
2013-05-17 10:00:00,63.9,55.2,27.41,SSE,153,1.1,5.2,73,0.00,--,--,0.00,awk and wget,2013-05-17 14:00:00,
2013-05-17 10:10:00,65.6,55.8,27.41,NNW,332,1.3,5.7,70,0.00,--,--,0.00,awk and wget,2013-05-17 14:10:00,
2013-05-17 10:15:00,65.8,56.4,27.41,SE,140,1.1,6.2,71,0.00,--,--,0.00,awk and wget,2013-05-17 14:15:00,
2013-05-17 10:20:00,66.5,54.5,27.41,ESE,122,0.8,6.2,65,0.00,--,--,0.00,awk and wget,2013-05-17 14:20:00,
2013-05-17 10:30:00,68.0,53.9,27.41,NNW,330,1.3,6.5,60,0.00,--,--,0.00,awk and wget,2013-05-17 14:30:00,
2013-05-17 10:35:00,67.9,55.1,27.41,SE,141,1.5,6.5,63,0.00,--,--,0.00,awk and wget,2013-05-17 14:35:00,
2013-05-17 10:40:00,68.2,54.5,27.41,NNW,330,0.1,6.5,61,0.00,--,--,0.00,awk and wget,2013-05-17 14:40:00,
2013-05-17 10:45:00,68.8,53.8,27.41,NNW,329,0.5,6.8,58,0.00,--,--,0.00,awk and wget,2013-05-17 14:45:00,
2013-05-17 10:50:00,69.1,52.6,27.41,ESE,110,2.0,7.8,55,0.00,--,--,0.00,awk and wget,2013-05-17 14:50:00,
2013-05-17 11:00:00,69.3,53.8,27.41,NW,326,3.7,8.6,57,0.00,--,--,0.00,awk and wget,2013-05-17 15:00:00,
2013-05-17 11:10:00,68.8,52.8,27.41,NNW,330,3.1,8.7,56,0.00,--,--,0.00,awk and wget,2013-05-17 15:10:00,
2013-05-17 11:15:00,69.8,53.3,27.41,NW,325,6.3,9.3,55,0.00,--,--,0.00,awk and wget,2013-05-17 15:15:00,
2013-05-17 11:20:00,69.5,51.9,27.41,NW,326,7.2,9.6,53,0.00,--,--,0.00,awk and wget,2013-05-17 15:20:00,
2013-05-17 11:30:00,70.2,54.1,27.41,NW,325,6.3,11.4,56,0.00,--,--,0.00,awk and wget,2013-05-17 15:30:00,
2013-05-17 11:35:00,70.1,52.8,27.41,NW,325,4.8,11.4,54,0.00,--,--,0.00,awk and wget,2013-05-17 15:35:00,
2013-05-17 11:40:00,71.0,52.6,27.41,NW,325,6.4,11.9,52,0.00,--,--,0.00,awk and wget,2013-05-17 15:40:00,
2013-05-17 11:45:00,71.5,51.9,27.41,NW,325,2.9,11.9,50,0.00,--,--,0.00,awk and wget,2013-05-17 15:45:00,
2013-05-17 11:50:00,72.0,51.1,27.41,NW,325,5.3,14.3,47,0.00,--,--,0.00,awk and wget,2013-05-17 15:50:00,
2013-05-17 12:00:00,71.1,49.0,27.41,NNW,328,7.0,14.3,45,0.00,--,--,0.00,awk and wget,2013-05-17 16:00:00,
2013-05-17 12:10:00,71.1,48.1,27.41,ESE,103,4.1,12.1,44,0.00,--,--,0.00,awk and wget,2013-05-17 16:10:00,
2013-05-17 12:15:00,70.6,48.3,27.41,SE,146,4.5,11.2,45,0.00,--,--,0.00,awk and wget,2013-05-17 16:15:00,
2013-05-17 12:20:00,70.8,47.9,27.40,NNW,327,3.8,11.2,44,0.00,--,--,0.00,awk and wget,2013-05-17 16:20:00,
2013-05-17 12:30:00,71.5,49.2,27.40,ESE,117,3.1,14.0,45,0.00,--,--,0.00,awk and wget,2013-05-17 16:30:00,
2013-05-17 12:35:00,72.4,50.1,27.40,SE,132,5.7,14.0,45,0.00,--,--,0.00,awk and wget,2013-05-17 16:35:00,
2013-05-17 12:40:00,71.4,48.0,27.40,SE,135,4.8,14.0,43,0.00,--,--,0.00,awk and wget,2013-05-17 16:40:00,
2013-05-17 12:50:00,71.4,49.5,27.40,NW,326,3.8,13.5,46,0.00,--,--,0.00,awk and wget,2013-05-17 16:50:00,
2013-05-17 13:00:00,71.4,51.2,27.40,NW,325,6.1,15.9,48,0.00,--,--,0.00,awk and wget,2013-05-17 17:00:00,
2013-05-17 13:05:00,71.7,51.7,27.40,NW,324,14.4,15.9,49,0.00,--,--,0.00,awk and wget,2013-05-17 17:05:00,
2013-05-17 13:10:00,72.1,52.9,27.40,NW,324,8.2,14.8,50,0.00,--,--,0.00,awk and wget,2013-05-17 17:10:00,
2013-05-17 13:15:00,72.3,51.4,27.40,NW,324,13.6,14.8,47,0.00,--,--,0.00,awk and wget,2013-05-17 17:15:00,
2013-05-17 13:20:00,73.0,53.0,27.40,NW,326,6.3,14.8,49,0.00,--,--,0.00,awk and wget,2013-05-17 17:20:00,
2013-05-17 13:30:00,73.1,51.2,27.40,SSE,156,5.0,14.6,46,0.00,--,--,0.00,awk and wget,2013-05-17 17:30:00,
2013-05-17 13:40:00,73.2,51.9,27.40,NW,325,15.9,15.9,47,0.00,--,--,0.00,awk and wget,2013-05-17 17:40:00,
2013-05-17 13:45:00,73.3,51.4,27.40,SE,145,7.9,15.5,46,0.00,--,--,0.00,awk and wget,2013-05-17 17:45:00,
2013-05-17 13:50:00,73.0,51.6,27.40,NW,324,14.6,17.4,46,0.00,--,--,0.00,awk and wget,2013-05-17 17:50:00,
2013-05-17 14:00:00,73.6,51.1,27.40,NNW,328,16.2,17.4,45,0.00,--,--,0.00,awk and wget,2013-05-17 18:00:00,
2013-05-17 14:10:00,71.6,51.2,27.40,NW,324,11.8,16.8,48,0.00,--,--,0.00,awk and wget,2013-05-17 18:10:00,
2013-05-17 14:15:00,71.1,51.1,27.40,NW,324,15.8,16.0,49,0.00,--,--,0.00,awk and wget,2013-05-17 18:15:00,
2013-05-17 14:20:00,70.6,51.8,27.40,NW,324,10.5,16.0,51,0.00,--,--,0.00,awk and wget,2013-05-17 18:20:00,
2013-05-17 14:30:00,69.6,51.9,27.40,NW,325,12.3,16.3,53,0.00,--,--,0.00,awk and wget,2013-05-17 18:30:00,
2013-05-17 14:35:00,66.4,54.6,27.41,NW,324,16.3,18.3,65,0.00,--,--,0.00,awk and wget,2013-05-17 18:35:00,
2013-05-17 14:40:00,66.2,55.7,27.41,NW,324,11.9,18.3,68,0.00,--,--,0.00,awk and wget,2013-05-17 18:40:00,
2013-05-17 14:45:00,66.2,56.0,27.41,NW,325,12.0,18.3,69,0.00,--,--,0.00,awk and wget,2013-05-17 18:45:00,
2013-05-17 14:50:00,65.5,56.4,27.41,NW,324,12.2,14.7,72,0.00,--,--,0.00,awk and wget,2013-05-17 18:50:00,
2013-05-17 14:55:00,65.1,56.4,27.41,NW,324,11.2,13.0,73,0.00,--,--,0.00,awk and wget,2013-05-17 18:55:00,
2013-05-17 15:00:00,64.5,58.4,27.40,NNW,343,2.0,13.0,80,0.00,--,--,0.00,awk and wget,2013-05-17 19:00:00,
2013-05-17 15:10:00,65.6,58.0,27.40,NNW,330,2.8,7.7,76,0.00,--,--,0.00,awk and wget,2013-05-17 19:10:00,
2013-05-17 15:15:00,66.5,58.7,27.40,NNW,327,1.7,6.8,75,0.00,--,--,0.00,awk and wget,2013-05-17 19:15:00,
2013-05-17 15:20:00,67.4,58.0,27.40,NNW,337,1.5,5.5,71,0.00,--,--,0.00,awk and wget,2013-05-17 19:20:00,
2013-05-17 15:25:00,68.0,58.1,27.40,North,8,1.0,5.5,70,0.00,--,--,0.00,awk and wget,2013-05-17 19:25:00,
2013-05-17 15:30:00,68.8,57.8,27.40,NNW,335,1.4,5.4,67,0.00,--,--,0.00,awk and wget,2013-05-17 19:30:00,
2013-05-17 15:40:00,67.9,58.2,27.39,NE,40,3.4,5.4,71,0.00,--,--,0.00,awk and wget,2013-05-17 19:40:00,
2013-05-17 15:45:00,69.5,58.1,27.39,NNE,33,4.7,8.1,67,0.00,--,--,0.00,awk and wget,2013-05-17 19:45:00,
2013-05-17 15:50:00,69.7,57.6,27.39,NE,38,4.4,8.1,65,0.00,--,--,0.00,awk and wget,2013-05-17 19:50:00,
2013-05-17 16:00:00,69.4,57.7,27.39,ENE,63,4.9,8.3,66,0.00,--,--,0.00,awk and wget,2013-05-17 20:00:00,
2013-05-17 16:05:00,69.3,56.7,27.39,ENE,64,5.0,8.3,64,0.00,--,--,0.00,awk and wget,2013-05-17 20:05:00,
2013-05-17 16:10:00,69.2,56.5,27.39,NE,54,5.7,8.2,63,0.00,--,--,0.00,awk and wget,2013-05-17 20:10:00,
2013-05-17 16:15:00,68.8,56.7,27.39,NE,47,4.8,8.6,65,0.00,--,--,0.00,awk and wget,2013-05-17 20:15:00,
2013-05-17 16:20:00,68.5,56.8,27.39,NNE,32,5.3,8.6,66,0.00,--,--,0.00,awk and wget,2013-05-17 20:20:00,
2013-05-17 16:25:00,68.4,56.3,27.39,NE,35,3.1,8.6,65,0.00,--,--,0.00,awk and wget,2013-05-17 20:25:00,
2013-05-17 16:30:00,67.9,57.8,27.39,NW,325,8.3,16.0,69,0.00,--,--,0.00,awk and wget,2013-05-17 20:30:00,
2013-05-17 16:35:00,66.1,56.8,27.40,NNW,329,12.6,16.0,71,0.00,--,--,0.00,awk and wget,2013-05-17 20:35:00,
2013-05-17 16:40:00,64.3,58.0,27.40,NW,326,6.4,16.0,80,0.00,--,--,0.00,awk and wget,2013-05-17 20:40:00,
2013-05-17 16:45:00,63.5,58.8,27.40,NW,326,4.1,13.5,84,0.00,--,--,0.00,awk and wget,2013-05-17 20:45:00,
2013-05-17 16:50:00,63.2,59.1,27.40,NNW,331,4.1,11.9,86,0.00,--,--,0.00,awk and wget,2013-05-17 20:50:00,
2013-05-17 16:55:00,63.3,59.6,27.40,NNW,328,3.2,6.7,87,0.00,--,--,0.00,awk and wget,2013-05-17 20:55:00,
2013-05-17 17:00:00,63.2,60.7,27.40,NNW,330,0.9,5.6,91,0.00,--,--,0.00,awk and wget,2013-05-17 21:00:00,
2013-05-17 17:05:00,62.7,59.9,27.40,North,357,2.9,5.6,90,0.00,--,--,0.00,awk and wget,2013-05-17 21:05:00,
2013-05-17 17:10:00,62.6,59.9,27.40,NNE,16,1.4,5.6,90,0.00,--,--,0.00,awk and wget,2013-05-17 21:10:00,
2013-05-17 17:15:00,62.9,60.0,27.40,NNE,16,0.1,5.3,90,0.00,--,--,0.00,awk and wget,2013-05-17 21:15:00,
2013-05-17 17:20:00,62.9,60.3,27.40,North,11,0.7,5.3,91,0.00,--,--,0.00,awk and wget,2013-05-17 21:20:00,
2013-05-17 17:25:00,62.9,60.5,27.40,NNW,333,0.2,5.3,91,0.00,--,--,0.00,awk and wget,2013-05-17 21:25:00,
2013-05-17 17:30:00,62.7,60.6,27.40,East,89,3.3,8.2,93,0.00,--,--,0.00,awk and wget,2013-05-17 21:30:00,
2013-05-17 17:35:00,62.5,60.7,27.40,ENE,73,2.7,8.2,94,0.00,--,--,0.00,awk and wget,2013-05-17 21:35:00,
2013-05-17 17:40:00,62.5,60.8,27.40,East,83,2.2,8.2,94,0.00,--,--,0.00,awk and wget,2013-05-17 21:40:00,
2013-05-17 17:50:00,62.8,61.1,27.40,NE,51,2.9,5.3,94,0.00,--,--,0.00,awk and wget,2013-05-17 21:50:00,
2013-05-17 17:55:00,63.1,61.4,27.40,NE,39,2.2,6.4,94,0.00,--,--,0.00,awk and wget,2013-05-17 21:55:00,
2013-05-17 18:00:00,63.8,62.0,27.40,NE,49,3.5,7.2,93,0.00,--,--,0.00,awk and wget,2013-05-17 22:00:00,
2013-05-17 18:10:00,64.7,61.6,27.39,NE,34,4.5,8.6,89,0.00,--,--,0.00,awk and wget,2013-05-17 22:10:00,
2013-05-17 18:15:00,64.3,59.9,27.39,NE,36,5.1,8.6,85,0.00,--,--,0.00,awk and wget,2013-05-17 22:15:00,
2013-05-17 18:20:00,64.5,60.3,27.39,NE,48,2.3,8.6,86,0.00,--,--,0.00,awk and wget,2013-05-17 22:20:00,
2013-05-17 18:25:00,64.5,59.9,27.39,NNE,30,2.7,8.1,85,0.00,--,--,0.00,awk and wget,2013-05-17 22:25:00,
2013-05-17 18:30:00,64.4,59.6,27.40,NE,37,3.0,6.3,84,0.00,--,--,0.00,awk and wget,2013-05-17 22:30:00,
2013-05-17 18:40:00,64.5,59.8,27.40,NE,40,1.6,6.2,84,0.00,--,--,0.00,awk and wget,2013-05-17 22:40:00,
2013-05-17 18:45:00,64.7,60.1,27.40,NE,38,1.8,6.2,84,0.00,--,--,0.00,awk and wget,2013-05-17 22:45:00,
2013-05-17 18:50:00,65.0,59.8,27.40,NE,52,2.3,6.2,83,0.00,--,--,0.00,awk and wget,2013-05-17 22:50:00,
2013-05-17 18:55:00,64.9,59.9,27.40,East,81,1.5,5.4,83,0.00,--,--,0.00,awk and wget,2013-05-17 22:55:00,
2013-05-17 19:00:00,64.8,60.0,27.40,NE,50,1.2,5.4,84,0.00,--,--,0.00,awk and wget,2013-05-17 23:00:00,
2013-05-17 19:05:00,64.6,59.6,27.40,East,79,2.1,5.3,83,0.00,--,--,0.00,awk and wget,2013-05-17 23:05:00,
2013-05-17 19:10:00,64.5,59.7,27.40,East,89,1.4,5.1,84,0.00,--,--,0.00,awk and wget,2013-05-17 23:10:00,
2013-05-17 19:15:00,64.2,60.0,27.40,East,90,1.5,5.3,86,0.00,--,--,0.00,awk and wget,2013-05-17 23:15:00,
2013-05-17 19:20:00,64.0,60.5,27.40,East,90,0.1,5.3,88,0.00,--,--,0.00,awk and wget,2013-05-17 23:20:00,
2013-05-17 19:25:00,63.9,60.6,27.40,East,90,0.1,5.3,88,0.00,--,--,0.00,awk and wget,2013-05-17 23:25:00,
2013-05-17 19:30:00,63.8,60.8,27.40,East,90,0.4,4.9,90,0.00,--,--,0.00,awk and wget,2013-05-17 23:30:00,
2013-05-17 19:35:00,63.4,60.6,27.41,East,90,0.1,5.0,90,0.00,--,--,0.00,awk and wget,2013-05-17 23:35:00,
2013-05-17 19:40:00,63.0,60.8,27.41,East,90,0.1,5.0,92,0.00,--,--,0.00,awk and wget,2013-05-17 23:40:00,
2013-05-17 19:45:00,62.7,60.7,27.41,NNW,344,1.5,5.0,93,0.00,--,--,0.00,awk and wget,2013-05-17 23:45:00,
2013-05-17 19:50:00,62.6,60.9,27.41,NNW,340,1.5,4.2,94,0.00,--,--,0.00,awk and wget,2013-05-17 23:50:00,
2013-05-17 19:55:00,62.5,60.9,27.41,NNW,345,1.4,4.2,94,0.00,--,--,0.00,awk and wget,2013-05-17 23:55:00,
2013-05-17 20:00:00,62.8,61.1,27.42,North,351,1.0,4.2,94,0.00,--,--,0.00,awk and wget,2013-05-18 00:00:00,
2013-05-17 20:05:00,62.5,60.7,27.42,NNW,338,0.1,3.0,94,0.00,--,--,0.00,awk and wget,2013-05-18 00:05:00,
2013-05-17 20:10:00,61.8,60.2,27.42,North,4,2.0,4.7,94,0.00,--,--,0.00,awk and wget,2013-05-18 00:10:00,
2013-05-17 20:20:00,61.9,59.9,27.42,NNW,343,3.7,5.1,93,0.00,--,--,0.00,awk and wget,2013-05-18 00:20:00,
2013-05-17 20:30:00,61.4,59.0,27.43,NNW,327,0.1,6.1,91,0.00,--,--,0.00,awk and wget,2013-05-18 00:30:00,
2013-05-17 20:40:00,61.0,59.3,27.43,NNW,327,5.0,6.4,94,0.00,--,--,0.00,awk and wget,2013-05-18 00:40:00,
2013-05-17 20:45:00,61.3,59.2,27.42,NNW,331,0.8,6.4,92,0.00,--,--,0.00,awk and wget,2013-05-18 00:45:00,
2013-05-17 20:50:00,60.7,59.1,27.43,NNW,330,0.2,6.4,94,0.00,--,--,0.00,awk and wget,2013-05-18 00:50:00,
2013-05-17 20:55:00,60.2,59.1,27.43,NNW,345,3.5,6.4,96,0.00,--,--,0.00,awk and wget,2013-05-18 00:55:00,
2013-05-17 21:00:00,60.1,59.2,27.43,NNE,14,2.1,7.1,96,0.00,--,--,0.00,awk and wget,2013-05-18 01:00:00,
2013-05-17 21:05:00,60.0,59.2,27.43,NNE,17,1.2,7.1,96,0.00,--,--,0.00,awk and wget,2013-05-18 01:05:00,
2013-05-17 21:10:00,60.0,59.3,27.43,East,89,1.5,7.1,97,0.00,--,--,0.00,awk and wget,2013-05-18 01:10:00,
2013-05-17 21:15:00,59.9,59.1,27.43,North,349,0.8,5.3,97,0.00,--,--,0.00,awk and wget,2013-05-18 01:15:00,
2013-05-17 21:20:00,59.6,59.0,27.43,NNW,348,1.4,4.5,97,0.00,--,--,0.00,awk and wget,2013-05-18 01:20:00,
2013-05-17 21:25:00,59.4,58.7,27.43,NNW,332,2.0,4.5,97,0.00,--,--,0.00,awk and wget,2013-05-18 01:25:00,
2013-05-17 21:30:00,59.3,58.7,27.44,NNW,332,1.9,4.5,97,0.00,--,--,0.00,awk and wget,2013-05-18 01:30:00,
2013-05-17 21:40:00,59.2,58.7,27.44,NNW,336,1.1,4.2,98,0.00,--,--,0.00,awk and wget,2013-05-18 01:40:00,
2013-05-17 21:45:00,59.2,58.8,27.44,North,5,0.4,4.4,98,0.00,--,--,0.00,awk and wget,2013-05-18 01:45:00,
2013-05-17 21:50:00,59.2,58.8,27.44,NNW,333,1.2,4.5,98,0.00,--,--,0.00,awk and wget,2013-05-18 01:50:00,
2013-05-17 21:55:00,59.1,58.7,27.44,NNW,333,2.1,4.5,98,0.00,--,--,0.00,awk and wget,2013-05-18 01:55:00,
2013-05-17 22:00:00,59.0,58.6,27.45,NNW,340,1.6,4.5,98,0.00,--,--,0.00,awk and wget,2013-05-18 02:00:00,
2013-05-17 22:05:00,59.0,58.6,27.45,North,349,0.4,3.6,98,0.00,--,--,0.00,awk and wget,2013-05-18 02:05:00,
2013-05-17 22:10:00,58.9,58.5,27.45,NNW,333,1.4,3.9,98,0.00,--,--,0.00,awk and wget,2013-05-18 02:10:00,
2013-05-17 22:15:00,58.9,58.5,27.45,North,352,0.5,4.4,98,0.00,--,--,0.00,awk and wget,2013-05-18 02:15:00,
2013-05-17 22:20:00,58.9,58.5,27.45,NNE,29,2.0,4.4,98,0.00,--,--,0.00,awk and wget,2013-05-18 02:20:00,
2013-05-17 22:25:00,58.9,58.5,27.45,NNE,31,0.1,4.7,98,0.00,--,--,0.00,awk and wget,2013-05-18 02:25:00,
2013-05-17 22:30:00,58.8,58.5,27.45,NNE,31,1.0,5.0,98,0.00,--,--,0.00,awk and wget,2013-05-18 02:30:00,
2013-05-17 22:40:00,58.7,58.4,27.45,NNE,31,1.1,5.5,98,0.00,--,--,0.00,awk and wget,2013-05-18 02:40:00,
2013-05-17 22:45:00,58.6,58.4,27.45,NNE,32,0.7,5.5,99,0.00,--,--,0.00,awk and wget,2013-05-18 02:45:00,
2013-05-17 22:50:00,58.6,58.4,27.45,NNE,30,1.2,5.4,99,0.00,--,--,0.00,awk and wget,2013-05-18 02:50:00,
2013-05-17 22:55:00,58.7,58.4,27.45,ENE,60,1.5,5.1,99,0.00,--,--,0.00,awk and wget,2013-05-18 02:55:00,
2013-05-17 23:00:00,58.6,58.4,27.45,ENE,58,1.3,5.1,99,0.00,--,--,0.00,awk and wget,2013-05-18 03:00:00,
2013-05-17 23:05:00,58.5,58.3,27.45,NE,37,2.2,5.1,99,0.00,--,--,0.00,awk and wget,2013-05-18 03:05:00,
2013-05-17 23:10:00,58.4,58.2,27.45,NE,34,2.1,5.0,99,0.00,--,--,0.00,awk and wget,2013-05-18 03:10:00,
2013-05-17 23:15:00,58.4,58.1,27.45,NNE,23,2.8,5.6,99,0.00,--,--,0.00,awk and wget,2013-05-18 03:15:00,
2013-05-17 23:20:00,58.3,58.1,27.45,NNW,332,2.7,6.3,99,0.00,--,--,0.00,awk and wget,2013-05-18 03:20:00,
2013-05-17 23:25:00,58.4,58.2,27.45,NNE,14,2.8,6.3,99,0.00,--,--,0.00,awk and wget,2013-05-18 03:25:00,
2013-05-17 23:30:00,58.4,58.2,27.45,NNE,31,2.1,6.3,99,0.00,--,--,0.00,awk and wget,2013-05-18 03:30:00,
2013-05-17 23:35:00,58.4,58.2,27.44,North,357,0.9,6.2,99,0.00,--,--,0.00,awk and wget,2013-05-18 03:35:00,
2013-05-17 23:40:00,58.5,58.4,27.44,North,2,0.1,5.8,99,0.00,--,--,0.00,awk and wget,2013-05-18 03:40:00,
2013-05-17 23:45:00,58.5,58.3,27.44,NNW,346,0.7,5.1,99,0.00,--,--,0.00,awk and wget,2013-05-18 03:45:00,
2013-05-17 23:50:00,58.5,58.4,27.44,North,0,0.4,4.8,99,0.00,--,--,0.00,awk and wget,2013-05-18 03:50:00,
2013-05-17 23:55:00,58.3,58.1,27.44,NNW,332,1.3,4.8,99,0.00,--,--,0.00,awk and wget,2013-05-18 03:55:00,